Time;durP1;ratioP1;P1;durP2;ratioP2;P2;SDS_P1;SDS_P2;PMS_P1;PMS_P2;Temp;Humidity;BMP_temperature;BMP_pressure;BME280_temperature;BME280_humidity;BME280_pressure;Samples;Min_cycle;Max_cycle;Signal;HPM_P1;HPM_P2
2022/07/06 00:02:23;;;;;;;8.83;7.93;;;16.10;99.90;;;;;;4415839;28;659590;-64
2022/07/06 00:05:10;;;;;;;8.60;7.70;;;16.10;99.90;;;;;;4394232;28;657678;-64
2022/07/06 00:07:59;;;;;;;9.77;8.70;;;16.10;99.90;;;;;;4413120;28;657582;-63
2022/07/06 00:10:46;;;;;;;9.00;8.10;;;16.10;99.90;;;;;;4393996;28;657570;-64
2022/07/06 00:13:33;;;;;;;10.37;8.70;;;16.10;99.90;;;;;;4413009;28;659131;-64
2022/07/06 00:16:21;;;;;;;8.77;7.87;;;16.10;99.90;;;;;;4392714;28;659286;-64
2022/07/06 00:19:08;;;;;;;9.90;8.60;;;16.10;99.90;;;;;;4416807;28;658879;-64
2022/07/06 00:21:55;;;;;;;10.37;8.83;;;16.00;99.90;;;;;;4402452;28;657975;-66
2022/07/06 00:24:44;;;;;;;8.80;7.83;;;16.00;99.90;;;;;;4416505;28;658798;-64
2022/07/06 00:27:31;;;;;;;11.50;8.67;;;16.10;99.90;;;;;;4393765;28;657509;-64
2022/07/06 00:30:18;;;;;;;11.87;9.57;;;16.10;99.90;;;;;;4416000;28;659044;-64
2022/07/06 00:33:05;;;;;;;11.80;9.77;;;16.10;99.90;;;;;;4380819;28;658747;-66
2022/07/06 00:35:52;;;;;;;11.60;10.40;;;16.10;99.90;;;;;;4398883;28;659669;-64
2022/07/06 00:38:39;;;;;;;11.87;10.13;;;16.10;99.90;;;;;;4393354;28;659955;-64
2022/07/06 00:41:28;;;;;;;18.07;10.90;;;16.20;99.90;;;;;;4374291;28;660263;-64
2022/07/06 00:44:15;;;;;;;17.27;11.83;;;16.10;99.90;;;;;;4379786;28;659573;-66
2022/07/06 00:47:02;;;;;;;17.33;13.27;;;16.10;99.90;;;;;;4417137;28;660558;-64
2022/07/06 00:52:55;;;;;;;18.70;13.73;;;16.20;99.90;;;;;;4391453;28;660024;-64
2022/07/06 00:55:42;;;;;;;24.40;13.03;;;16.20;99.90;;;;;;4389618;28;661131;-64
2022/07/06 00:58:31;;;;;;;29.00;15.30;;;16.20;99.90;;;;;;4411481;28;659721;-65
2022/07/06 01:01:18;;;;;;;33.07;16.23;;;16.20;99.90;;;;;;4414497;28;660323;-64
2022/07/06 01:04:06;;;;;;;25.50;15.73;;;16.20;99.90;;;;;;4395511;28;659766;-64
2022/07/06 01:06:53;;;;;;;23.97;13.87;;;16.30;99.90;;;;;;4418280;28;660857;-64
2022/07/06 01:09:40;;;;;;;21.07;12.80;;;16.30;99.90;;;;;;4403866;28;659569;-65
2022/07/06 01:12:27;;;;;;;17.10;13.17;;;16.30;99.90;;;;;;4418450;28;660528;-64
2022/07/06 01:15:17;;;;;;;16.37;12.93;;;16.30;99.90;;;;;;4413629;28;660259;-64
2022/07/06 01:18:05;;;;;;;16.17;12.57;;;16.20;99.90;;;;;;4391328;28;660050;-64
2022/07/06 01:21:05;;;;;;;16.73;12.70;;;16.20;99.90;;;;;;4391411;28;660743;-64
2022/07/06 01:23:52;;;;;;;18.80;12.30;;;16.30;99.90;;;;;;4372157;28;659825;-64
2022/07/06 01:26:39;;;;;;;18.57;13.70;;;16.30;99.90;;;;;;4413915;28;660151;-64
2022/07/06 01:29:26;;;;;;;17.40;13.40;;;16.30;99.90;;;;;;4394754;28;659869;-64
2022/07/06 01:32:13;;;;;;;21.60;15.13;;;16.30;99.90;;;;;;4427133;28;660389;-64
2022/07/06 01:35:00;;;;;;;24.13;15.97;;;16.30;99.90;;;;;;4411470;28;659968;-64
2022/07/06 01:37:49;;;;;;;23.20;16.63;;;16.30;99.90;;;;;;4430195;28;660878;-64
2022/07/06 01:40:36;;;;;;;27.23;19.50;;;16.20;99.90;;;;;;4411401;28;660407;-63
2022/07/06 01:43:23;;;;;;;22.90;17.63;;;16.30;99.90;;;;;;4430281;28;660216;-64
2022/07/06 01:46:10;;;;;;;29.23;19.37;;;16.30;99.90;;;;;;4392327;28;659491;-65
2022/07/06 01:48:57;;;;;;;33.03;20.67;;;16.30;99.90;;;;;;4401614;28;660255;-64
2022/07/06 01:51:44;;;;;;;31.20;20.97;;;16.20;99.90;;;;;;4397086;28;659526;-64
2022/07/06 01:54:33;;;;;;;31.67;18.10;;;16.20;99.90;;;;;;4378541;28;659994;-64
2022/07/06 01:57:20;;;;;;;31.93;20.50;;;16.20;99.90;;;;;;4382392;28;659854;-65
2022/07/06 02:00:09;;;;;;;34.07;22.70;;;16.20;99.90;;;;;;4400997;28;660121;-64
2022/07/06 02:02:56;;;;;;;32.30;22.17;;;16.20;99.90;;;;;;4378215;28;659861;-64
2022/07/06 02:05:43;;;;;;;36.80;22.97;;;16.20;99.90;;;;;;4401014;28;660621;-64
2022/07/06 02:08:30;;;;;;;30.25;21.92;;;16.30;99.90;;;;;;4382086;28;659635;-65
2022/07/06 02:11:19;;;;;;;36.63;22.07;;;16.30;99.90;;;;;;4400568;28;660227;-64
2022/07/06 02:14:06;;;;;;;32.17;21.50;;;16.30;99.90;;;;;;4376542;28;659735;-64
2022/07/06 02:16:53;;;;;;;35.70;23.27;;;16.30;99.90;;;;;;4398718;28;659409;-64
2022/07/06 02:19:40;;;;;;;34.47;22.53;;;16.30;99.90;;;;;;4378760;28;659668;-66
2022/07/06 02:22:27;;;;;;;35.27;23.37;;;16.20;99.90;;;;;;4400615;28;659381;-64
2022/07/06 02:25:14;;;;;;;36.40;21.90;;;16.20;99.90;;;;;;4395952;28;660144;-64
2022/07/06 02:28:03;;;;;;;36.57;23.07;;;16.30;99.90;;;;;;4373954;28;659514;-65
2022/07/06 02:30:50;;;;;;;38.97;23.47;;;16.20;99.90;;;;;;4386390;28;660044;-66
2022/07/06 02:33:37;;;;;;;38.35;24.08;;;16.20;99.90;;;;;;4415896;28;660493;-65
2022/07/06 02:36:24;;;;;;;43.47;25.47;;;16.10;99.90;;;;;;4412296;28;659850;-65
2022/07/06 02:39:11;;;;;;;45.57;24.73;;;16.10;99.90;;;;;;4388712;28;660116;-65
2022/07/06 02:41:58;;;;;;;43.60;24.97;;;16.10;99.90;;;;;;4411872;28;660845;-65
2022/07/06 02:44:47;;;;;;;44.10;25.80;;;16.10;99.90;;;;;;4392856;28;659397;-65
2022/07/06 02:47:34;;;;;;;48.70;24.17;;;16.10;99.90;;;;;;4429023;28;660768;-64
2022/07/06 02:50:21;;;;;;;51.83;26.17;;;16.10;99.90;;;;;;4410364;28;660591;-65
2022/07/06 02:53:08;;;;;;;49.17;25.43;;;16.00;99.90;;;;;;4432909;28;660106;-65
2022/07/06 02:55:55;;;;;;;42.90;26.73;;;16.00;99.90;;;;;;4410149;28;659409;-65
2022/07/06 02:58:42;;;;;;;40.93;24.30;;;16.00;99.90;;;;;;4429004;28;661017;-65
2022/07/06 03:01:31;;;;;;;40.03;24.70;;;16.00;99.90;;;;;;4428263;28;659604;-66
2022/07/06 03:04:19;;;;;;;44.90;26.97;;;16.10;99.90;;;;;;4428888;28;660727;-65
2022/07/06 03:07:06;;;;;;;50.60;26.97;;;16.00;99.90;;;;;;4409579;28;659567;-65
2022/07/06 03:09:53;;;;;;;50.67;29.80;;;16.00;99.90;;;;;;4432844;28;660378;-65
2022/07/06 03:12:40;;;;;;;42.07;27.53;;;16.00;99.90;;;;;;4417529;28;659911;-66
2022/07/06 03:15:27;;;;;;;50.53;29.67;;;16.00;99.90;;;;;;4432746;28;660242;-65
2022/07/06 03:18:16;;;;;;;44.00;27.83;;;15.90;99.90;;;;;;4428522;28;659222;-65
2022/07/06 03:21:03;;;;;;;41.87;26.40;;;15.90;99.90;;;;;;4405445;28;660504;-65
2022/07/06 03:23:50;;;;;;;42.43;27.73;;;15.90;99.90;;;;;;4409620;28;660232;-66
2022/07/06 03:26:37;;;;;;;44.67;27.85;;;15.90;99.90;;;;;;4432262;28;659285;-65
2022/07/06 03:29:24;;;;;;;41.17;27.50;;;15.90;99.90;;;;;;4428891;28;659451;-65
2022/07/06 03:32:11;;;;;;;41.07;25.87;;;15.90;99.90;;;;;;4405182;28;659869;-65
2022/07/06 03:35:00;;;;;;;42.17;26.93;;;15.90;99.90;;;;;;4428663;28;660278;-65
2022/07/06 03:37:47;;;;;;;42.50;27.13;;;15.90;99.90;;;;;;4405765;28;661448;-65
2022/07/06 03:40:34;;;;;;;45.83;26.63;;;16.00;99.90;;;;;;4428519;28;659951;-65
2022/07/06 03:43:21;;;;;;;41.03;24.57;;;15.90;99.90;;;;;;4409258;28;659488;-65
2022/07/06 03:46:09;;;;;;;41.67;23.50;;;15.90;99.90;;;;;;4408543;28;660325;-65
2022/07/06 03:48:56;;;;;;;36.87;23.40;;;15.90;99.90;;;;;;4375335;28;660084;-65
2022/07/06 03:51:44;;;;;;;30.40;19.63;;;16.00;99.90;;;;;;4396445;28;660621;-65
2022/07/06 03:54:31;;;;;;;26.93;18.67;;;15.90;99.90;;;;;;4375605;28;659475;-65
2022/07/06 03:57:19;;;;;;;28.00;17.03;;;16.10;99.90;;;;;;4394314;28;659576;-65
2022/07/06 04:00:07;;;;;;;21.67;14.40;;;16.10;99.90;;;;;;4375688;28;660164;-64
2022/07/06 04:02:54;;;;;;;17.00;12.00;;;16.20;99.90;;;;;;4394135;28;659898;-65
2022/07/06 04:05:41;;;;;;;11.87;10.33;;;16.20;99.90;;;;;;4375548;28;659545;-65
2022/07/06 04:08:29;;;;;;;15.00;10.47;;;16.10;99.90;;;;;;4394431;28;661432;-64
2022/07/06 04:11:16;;;;;;;16.27;11.73;;;16.10;99.90;;;;;;4375902;28;660495;-65
2022/07/06 04:14:04;;;;;;;17.40;12.20;;;16.20;99.90;;;;;;4394273;28;660112;-65
2022/07/06 04:16:51;;;;;;;15.30;11.70;;;16.20;99.90;;;;;;4375289;28;659677;-65
2022/07/06 04:19:38;;;;;;;15.07;12.80;;;16.30;99.90;;;;;;4397994;28;661132;-65
2022/07/06 04:22:25;;;;;;;15.00;12.10;;;16.40;99.90;;;;;;4383073;28;659697;-66
2022/07/06 04:25:14;;;;;;;16.53;12.47;;;16.50;99.90;;;;;;4397124;28;660805;-65
2022/07/06 04:28:01;;;;;;;14.97;11.87;;;16.60;99.90;;;;;;4378903;28;659458;-65
2022/07/06 04:30:48;;;;;;;16.30;12.07;;;16.60;99.90;;;;;;4398621;28;660916;-65
2022/07/06 04:33:35;;;;;;;15.40;11.77;;;16.70;99.90;;;;;;4398555;28;659815;-66
2022/07/06 04:36:22;;;;;;;16.03;11.33;;;16.70;99.90;;;;;;4417750;28;660663;-65
2022/07/06 04:39:09;;;;;;;20.17;12.40;;;16.90;99.90;;;;;;4417682;28;659552;-65
2022/07/06 04:41:58;;;;;;;16.73;12.00;;;17.10;99.90;;;;;;4394901;28;660127;-65
2022/07/06 04:44:45;;;;;;;18.93;13.07;;;17.10;99.90;;;;;;4395535;28;659840;-67
2022/07/06 04:47:32;;;;;;;15.50;12.35;;;16.80;99.90;;;;;;4435186;28;659337;-65
2022/07/06 04:50:19;;;;;;;17.83;12.13;;;16.90;99.90;;;;;;4431035;28;659638;-65
2022/07/06 04:53:06;;;;;;;17.03;12.63;;;16.80;99.90;;;;;;4412280;28;659685;-65
2022/07/06 04:55:53;;;;;;;15.67;11.37;;;16.70;99.90;;;;;;4431293;28;660703;-65
2022/07/06 04:58:42;;;;;;;17.47;11.17;;;16.70;99.90;;;;;;4411860;28;659745;-65
2022/07/06 05:01:29;;;;;;;12.50;11.20;;;16.70;99.90;;;;;;4435620;28;659513;-65
2022/07/06 05:04:18;;;;;;;13.77;10.73;;;16.60;99.90;;;;;;4411677;28;659837;-65
2022/07/06 05:07:05;;;;;;;10.82;9.60;;;16.80;99.90;;;;;;4415883;28;660118;-66
2022/07/06 05:09:52;;;;;;;11.27;9.50;;;16.90;99.90;;;;;;4436410;28;659263;-65
2022/07/06 05:12:39;;;;;;;11.90;8.70;;;16.90;99.90;;;;;;4432156;28;659000;-65
2022/07/06 05:15:28;;;;;;;11.87;9.73;;;17.10;99.90;;;;;;4412797;28;658946;-65
2022/07/06 05:18:15;;;;;;;9.57;8.57;;;16.90;99.90;;;;;;4417189;28;658694;-67
2022/07/06 05:21:02;;;;;;;9.90;7.80;;;17.00;99.90;;;;;;4437275;28;658103;-65
2022/07/06 05:23:49;;;;;;;9.27;8.07;;;17.30;99.90;;;;;;4432526;28;657729;-65
2022/07/06 05:26:36;;;;;;;10.00;7.30;;;17.70;99.90;;;;;;4410117;28;657896;-66
2022/07/06 05:29:23;;;;;;;8.80;6.57;;;17.90;99.90;;;;;;4431817;28;659436;-65
2022/07/06 05:32:12;;;;;;;8.30;6.73;;;18.00;99.90;;;;;;4403513;28;657592;-65
2022/07/06 05:34:59;;;;;;;12.73;7.57;;;17.30;99.90;;;;;;4420311;28;657823;-64
2022/07/06 05:37:46;;;;;;;10.37;8.37;;;17.50;99.90;;;;;;4395970;28;658868;-65
2022/07/06 05:40:33;;;;;;;13.37;9.57;;;17.00;99.90;;;;;;4414851;28;660006;-65
2022/07/06 05:43:20;;;;;;;16.07;11.30;;;17.00;99.90;;;;;;4394891;28;659039;-66
2022/07/06 05:46:07;;;;;;;17.67;13.60;;;17.20;99.90;;;;;;4403707;28;661244;-65
2022/07/06 05:52:01;;;;;;;20.87;14.00;;;17.30;99.90;;;;;;4350490;28;660296;-65
2022/07/06 05:54:48;;;;;;;13.57;11.60;;;17.90;99.90;;;;;;4399955;28;660365;-65
2022/07/06 05:57:35;;;;;;;12.73;10.97;;;17.90;99.90;;;;;;4377166;28;660022;-65
2022/07/06 06:00:22;;;;;;;11.30;9.50;;;18.00;99.90;;;;;;4400164;28;660502;-65
2022/07/06 06:03:09;;;;;;;12.27;10.13;;;18.00;99.90;;;;;;4397177;28;658528;-65
2022/07/06 06:05:58;;;;;;;17.87;11.17;;;17.80;99.90;;;;;;4377142;28;660077;-65
2022/07/06 06:08:45;;;;;;;15.70;11.37;;;17.90;99.90;;;;;;4379830;28;659819;-66
2022/07/06 06:11:32;;;;;;;10.87;9.07;;;17.70;99.90;;;;;;4399949;28;659757;-65
2022/07/06 06:14:19;;;;;;;10.43;8.57;;;17.70;99.90;;;;;;4396904;28;658782;-65
2022/07/06 06:17:09;;;;;;;11.00;7.30;;;17.90;99.90;;;;;;4373816;28;658866;-65
2022/07/06 06:19:56;;;;;;;13.90;6.43;;;18.10;99.90;;;;;;4378316;28;659070;-65
2022/07/06 06:22:49;;;;;;;6.70;6.00;;;18.40;99.90;;;;;;4397085;28;660071;-65
2022/07/06 06:25:36;;;;;;;5.87;5.20;;;18.60;99.90;;;;;;4352491;28;658134;-65
2022/07/06 06:28:23;;;;;;;8.03;6.03;;;18.90;99.90;;;;;;4397829;28;658284;-65
2022/07/06 06:31:11;;;;;;;7.40;5.97;;;19.00;99.90;;;;;;4381981;28;658085;-66
2022/07/06 06:33:58;;;;;;;7.63;6.33;;;19.00;99.90;;;;;;4415133;28;658563;-65
2022/07/06 06:36:46;;;;;;;11.30;8.03;;;19.10;99.90;;;;;;4393439;28;657324;-65
2022/07/06 06:39:35;;;;;;;11.30;7.50;;;18.60;99.90;;;;;;4413790;28;659299;-65
2022/07/06 06:42:22;;;;;;;7.27;6.50;;;18.40;99.90;;;;;;4395375;28;659589;-65
2022/07/06 06:45:10;;;;;;;12.73;8.27;;;18.70;99.90;;;;;;4411351;28;657975;-64
2022/07/06 06:47:57;;;;;;;10.13;7.83;;;19.10;99.90;;;;;;4390911;28;660606;-64
2022/07/06 06:50:44;;;;;;;13.50;9.50;;;19.10;99.90;;;;;;4413744;28;659176;-64
2022/07/06 06:53:31;;;;;;;8.83;7.93;;;18.60;99.90;;;;;;4395019;28;658796;-65
2022/07/06 06:56:20;;;;;;;9.83;7.80;;;18.40;99.90;;;;;;4414629;28;659045;-64
2022/07/06 06:59:07;;;;;;;8.77;7.57;;;18.30;99.90;;;;;;4392079;28;658818;-65
2022/07/06 07:01:54;;;;;;;7.60;6.73;;;19.00;99.90;;;;;;4413590;28;657871;-65
2022/07/06 07:04:41;;;;;;;7.17;5.90;;;19.60;99.90;;;;;;4395550;28;657604;-65
2022/07/06 07:07:28;;;;;;;14.33;7.90;;;19.60;99.90;;;;;;4415055;28;658589;-64
2022/07/06 07:10:15;;;;;;;14.47;10.43;;;19.30;99.90;;;;;;4394672;28;658690;-65
2022/07/06 07:13:04;;;;;;;10.47;8.60;;;18.90;99.90;;;;;;4412034;28;661203;-64
2022/07/06 07:15:51;;;;;;;13.63;9.90;;;19.40;99.90;;;;;;4394617;28;658948;-65
2022/07/06 07:18:38;;;;;;;13.50;8.27;;;19.20;99.90;;;;;;4413208;28;660109;-65
2022/07/06 07:21:25;;;;;;;11.07;8.07;;;18.90;99.90;;;;;;4394507;28;658414;-66
2022/07/06 07:24:12;;;;;;;11.37;8.30;;;18.30;99.90;;;;;;4413225;28;659207;-64
2022/07/06 07:26:59;;;;;;;14.23;9.90;;;18.40;99.90;;;;;;4412812;28;658367;-64
2022/07/06 07:29:48;;;;;;;20.63;12.37;;;18.20;99.90;;;;;;4394375;28;658839;-64
2022/07/06 07:32:35;;;;;;;16.53;13.40;;;17.90;99.90;;;;;;4392991;28;659494;-65
2022/07/06 07:35:23;;;;;;;20.97;14.03;;;18.00;99.90;;;;;;4416092;28;660278;-64
2022/07/06 07:38:10;;;;;;;20.17;15.50;;;17.90;99.90;;;;;;4405346;28;659546;-65
2022/07/06 07:40:57;;;;;;;24.93;17.80;;;17.80;99.90;;;;;;4415814;28;659372;-64
2022/07/06 07:43:44;;;;;;;25.13;18.80;;;17.60;99.90;;;;;;4411519;28;659586;-64
2022/07/06 07:46:33;;;;;;;28.63;19.17;;;17.50;99.90;;;;;;4393135;28;660150;-64
2022/07/06 07:49:21;;;;;;;28.83;19.43;;;17.50;99.90;;;;;;4397550;28;659816;-66
2022/07/06 07:52:08;;;;;;;30.73;22.40;;;17.20;99.90;;;;;;4414018;28;659641;-64
2022/07/06 07:54:55;;;;;;;32.30;21.43;;;17.20;99.90;;;;;;4392443;28;659648;-66
2022/07/06 07:57:42;;;;;;;34.72;22.70;;;17.00;99.90;;;;;;4415626;28;660637;-64
2022/07/06 08:00:29;;;;;;;33.10;23.00;;;17.00;99.90;;;;;;4411625;28;660514;-64
2022/07/06 08:03:18;;;;;;;43.00;28.37;;;16.90;99.90;;;;;;4388572;28;659826;-64
2022/07/06 08:06:05;;;;;;;40.57;26.63;;;16.60;99.90;;;;;;4401621;28;659977;-65
2022/07/06 08:08:52;;;;;;;48.60;31.57;;;16.60;99.90;;;;;;4415653;28;660493;-64
2022/07/06 08:11:40;;;;;;;47.97;27.80;;;16.60;99.90;;;;;;4410994;28;660129;-65
2022/07/06 08:14:27;;;;;;;45.72;30.25;;;16.50;99.90;;;;;;4415204;28;659190;-64
2022/07/06 08:17:14;;;;;;;47.53;29.27;;;16.40;99.90;;;;;;4411327;28;660558;-64
2022/07/06 08:20:03;;;;;;;48.23;28.27;;;16.60;99.90;;;;;;4392353;28;659352;-64
2022/07/06 08:22:50;;;;;;;46.13;25.37;;;16.70;99.90;;;;;;4392374;28;659600;-65
2022/07/06 08:25:37;;;;;;;31.40;22.70;;;17.00;99.90;;;;;;4410873;28;660308;-65
2022/07/06 08:28:25;;;;;;;27.13;20.83;;;17.30;99.90;;;;;;4410280;28;659891;-65
2022/07/06 08:31:12;;;;;;;23.70;17.73;;;17.60;99.90;;;;;;4418573;28;659075;-64
2022/07/06 08:33:59;;;;;;;36.90;22.17;;;17.80;99.90;;;;;;4428066;28;659889;-64
2022/07/06 08:36:48;;;;;;;29.63;22.03;;;18.20;99.90;;;;;;4404741;28;661025;-64
2022/07/06 08:39:35;;;;;;;26.90;18.87;;;18.90;99.90;;;;;;4419003;28;660248;-66
2022/07/06 08:42:22;;;;;;;27.83;17.27;;;18.70;99.90;;;;;;4431857;28;660136;-64
2022/07/06 08:45:10;;;;;;;26.07;16.93;;;18.60;99.90;;;;;;4425148;28;659812;-65
2022/07/06 08:47:57;;;;;;;24.30;18.40;;;17.90;99.90;;;;;;4388572;28;660715;-64
2022/07/06 08:50:44;;;;;;;26.60;18.90;;;17.00;99.90;;;;;;4410635;28;659945;-64
2022/07/06 08:53:32;;;;;;;32.93;20.20;;;17.20;99.90;;;;;;4392510;28;660183;-65
2022/07/06 08:56:20;;;;;;;22.73;18.87;;;17.30;99.90;;;;;;4406412;28;660115;-66
2022/07/06 08:59:08;;;;;;;22.88;17.77;;;17.80;99.90;;;;;;4415340;28;659405;-64
2022/07/06 09:01:55;;;;;;;19.90;13.87;;;18.40;99.90;;;;;;4392495;28;660216;-65
2022/07/06 09:04:44;;;;;;;16.90;14.57;;;18.60;99.90;;;;;;4410890;28;660876;-64
2022/07/06 09:07:31;;;;;;;13.13;10.00;;;18.50;99.90;;;;;;4391677;28;660152;-65
2022/07/06 09:10:20;;;;;;;12.30;9.90;;;18.30;99.90;;;;;;4415945;28;659624;-64
2022/07/06 09:13:08;;;;;;;11.50;10.30;;;18.30;99.90;;;;;;4396931;28;660055;-64
2022/07/06 09:15:55;;;;;;;12.47;9.90;;;18.60;99.90;;;;;;4400243;28;659593;-66
2022/07/06 09:18:44;;;;;;;10.83;9.20;;;18.80;99.90;;;;;;4419506;28;659129;-64
2022/07/06 09:21:32;;;;;;;12.63;9.23;;;18.50;99.90;;;;;;4396480;28;658580;-65
2022/07/06 09:24:19;;;;;;;15.90;11.60;;;18.70;99.90;;;;;;4415167;28;658612;-64
2022/07/06 09:27:10;;;;;;;19.03;12.73;;;19.20;99.90;;;;;;4395155;28;659505;-65
2022/07/06 09:30:00;;;;;;;13.87;9.60;;;19.40;99.90;;;;;;4391414;28;659937;-65
2022/07/06 09:32:49;;;;;;;8.70;7.80;;;19.50;99.90;;;;;;4395536;28;659640;-65
2022/07/06 09:35:37;;;;;;;8.67;7.60;;;19.40;99.90;;;;;;4396728;28;657702;-65
2022/07/06 09:38:24;;;;;;;11.83;8.07;;;19.10;99.90;;;;;;4415156;28;657457;-65
2022/07/06 09:41:11;;;;;;;11.67;8.03;;;19.00;99.90;;;;;;4395260;28;659006;-64
2022/07/06 09:44:00;;;;;;;9.67;6.70;;;18.80;99.90;;;;;;4413763;28;659019;-64
2022/07/06 09:46:47;;;;;;;7.93;6.00;;;19.20;99.90;;;;;;4393142;28;659685;-64
2022/07/06 09:49:34;;;;;;;6.50;5.60;;;19.10;99.90;;;;;;4414924;28;658196;-64
2022/07/06 09:52:21;;;;;;;7.60;5.20;;;19.40;99.90;;;;;;4395970;28;657766;-65
2022/07/06 09:55:16;;;;;;;6.33;5.40;;;19.60;99.90;;;;;;4416090;28;658480;-64
2022/07/06 09:58:03;;;;;;;17.33;5.80;;;20.10;99.90;;;;;;4393210;28;658078;-64
2022/07/06 10:00:52;;;;;;;7.67;5.90;;;20.50;99.90;;;;;;4395398;28;658673;-65
2022/07/06 10:03:40;;;;;;;6.53;5.10;;;19.80;99.90;;;;;;4413396;28;658317;-66
2022/07/06 10:06:27;;;;;;;7.97;5.83;;;20.10;99.90;;;;;;4420075;28;657955;-65
2022/07/06 10:09:14;;;;;;;6.97;5.17;;;19.80;99.90;;;;;;4415752;28;657721;-64
2022/07/06 10:12:02;;;;;;;8.90;5.40;;;20.00;99.90;;;;;;4396839;28;657490;-65
2022/07/06 10:14:50;;;;;;;8.23;4.20;;;20.30;99.90;;;;;;4415404;28;657583;-65
2022/07/06 10:17:38;;;;;;;6.17;3.90;;;20.00;99.90;;;;;;4392651;28;658462;-64
2022/07/06 10:20:25;;;;;;;5.67;3.70;;;20.10;99.90;;;;;;4396484;28;657685;-64
2022/07/06 10:23:12;;;;;;;5.03;3.10;;;20.80;99.90;;;;;;4415404;28;658554;-64
2022/07/06 10:26:00;;;;;;;6.30;2.90;;;21.10;99.90;;;;;;4412574;28;657526;-66
2022/07/06 10:28:47;;;;;;;7.33;3.70;;;21.90;99.90;;;;;;4419842;28;657212;-65
2022/07/06 10:31:36;;;;;;;6.43;3.80;;;22.90;99.90;;;;;;4419113;28;657621;-65
2022/07/06 10:34:25;;;;;;;5.07;3.37;;;23.20;99.90;;;;;;4432164;28;659103;-65
2022/07/06 10:37:22;;;;;;;3.53;3.10;;;23.30;99.90;;;;;;4408861;28;658819;-66
2022/07/06 10:43:36;;;;;;;2.50;2.27;;;21.90;99.00;;;;;;4326255;28;657929;-64
2022/07/06 10:46:23;;;;;;;4.00;2.60;;;22.50;92.70;;;;;;4314397;28;657862;-64
2022/07/06 10:49:16;;;;;;;3.60;2.40;;;22.80;94.40;;;;;;4365480;28;657969;-64
2022/07/06 10:52:05;;;;;;;3.30;2.70;;;22.60;96.20;;;;;;4391348;28;658663;-64
2022/07/06 10:54:52;;;;;;;2.37;2.03;;;21.50;99.90;;;;;;4395298;28;657913;-64
2022/07/06 10:57:52;;;;;;;3.83;2.50;;;21.30;99.90;;;;;;4414118;28;657554;-64
2022/07/06 11:00:52;;;;;;;4.43;2.40;;;20.30;99.90;;;;;;4390960;28;657929;-65
2022/07/06 11:03:41;;;;;;;3.00;2.50;;;20.50;99.90;;;;;;4390686;28;657540;-65
2022/07/06 11:06:28;;;;;;;3.10;2.50;;;20.20;99.90;;;;;;4391045;28;658719;-64
2022/07/06 11:09:17;;;;;;;6.40;2.33;;;20.60;99.90;;;;;;4395087;28;657586;-64
2022/07/06 11:12:13;;;;;;;4.80;2.63;;;20.90;99.90;;;;;;4412313;28;657382;-64
2022/07/06 11:15:02;;;;;;;6.97;2.77;;;21.60;99.90;;;;;;4371686;28;657816;-65
2022/07/06 11:18:10;;;;;;;4.47;2.80;;;21.80;99.90;;;;;;4413726;28;658422;-65
2022/07/06 11:21:20;;;;;;;5.40;2.70;;;21.50;99.40;;;;;;4394794;28;658609;-64
2022/07/06 11:24:08;;;;;;;3.17;2.47;;;21.50;99.90;;;;;;4367761;28;658219;-64
2022/07/06 11:26:57;;;;;;;3.13;2.63;;;21.20;99.90;;;;;;4394657;28;658305;-66
2022/07/06 11:29:45;;;;;;;3.67;2.50;;;21.40;99.90;;;;;;4413322;28;658381;-65
2022/07/06 11:32:32;;;;;;;3.23;2.10;;;21.40;99.90;;;;;;4389570;28;658524;-65
2022/07/06 11:35:22;;;;;;;2.50;1.70;;;21.50;99.90;;;;;;4413352;28;657475;-64
2022/07/06 11:38:26;;;;;;;2.77;1.57;;;21.10;93.60;;;;;;4390477;28;657820;-63
2022/07/06 11:41:14;;;;;;;2.80;1.77;;;21.40;95.30;;;;;;4390469;28;657534;-64
2022/07/06 11:44:02;;;;;;;5.70;1.97;;;21.50;97.90;;;;;;4394515;28;657658;-64
2022/07/06 11:46:50;;;;;;;7.77;1.80;;;22.00;93.20;;;;;;4424914;28;658074;-66
2022/07/06 11:49:38;;;;;;;3.93;2.13;;;21.30;92.00;;;;;;4434902;28;657939;-64
2022/07/06 11:52:26;;;;;;;3.30;2.03;;;21.70;95.90;;;;;;4414282;28;657666;-65
2022/07/06 11:55:15;;;;;;;1.87;1.73;;;22.30;93.70;;;;;;4435009;28;658740;-64
2022/07/06 11:58:02;;;;;;;4.30;2.30;;;22.20;91.70;;;;;;4411950;28;659111;-64
2022/07/06 12:01:07;;;;;;;4.87;2.60;;;22.20;99.00;;;;;;4430658;28;657814;-64
2022/07/06 12:03:54;;;;;;;5.20;2.10;;;22.00;99.90;;;;;;4407695;28;657839;-64
2022/07/06 12:06:41;;;;;;;5.17;2.30;;;22.60;93.70;;;;;;4411569;28;658011;-65
2022/07/06 12:09:30;;;;;;;3.50;2.30;;;23.80;93.50;;;;;;4430604;28;658794;-65
2022/07/06 12:12:18;;;;;;;4.60;2.17;;;24.20;79.70;;;;;;4411488;28;658373;-64
2022/07/06 12:15:06;;;;;;;3.20;1.97;;;23.20;74.00;;;;;;4424065;28;657433;-66
2022/07/06 12:17:55;;;;;;;3.50;1.60;;;22.80;76.80;;;;;;4430365;28;658442;-64
2022/07/06 12:20:42;;;;;;;4.07;2.17;;;22.50;78.90;;;;;;4411712;28;658647;-64
2022/07/06 12:23:39;;;;;;;4.83;1.70;;;21.80;83.30;;;;;;4430346;28;657358;-64
2022/07/06 12:26:29;;;;;;;2.87;2.27;;;22.70;85.50;;;;;;4384505;28;658484;-65
2022/07/06 12:29:17;;;;;;;2.37;1.90;;;21.70;83.70;;;;;;4409451;28;657853;-64
2022/07/06 12:32:05;;;;;;;2.57;1.80;;;21.80;85.00;;;;;;4429996;28;658181;-64
2022/07/06 12:35:04;;;;;;;4.93;2.10;;;21.80;87.80;;;;;;4411424;28;658762;-64
2022/07/06 12:37:57;;;;;;;2.70;2.40;;;21.80;90.40;;;;;;4384469;28;658902;-64
2022/07/06 12:40:46;;;;;;;8.87;2.13;;;22.10;92.50;;;;;;4407220;28;658063;-64
2022/07/06 12:43:37;;;;;;;4.13;2.30;;;22.40;92.90;;;;;;4410818;28;658120;-64
2022/07/06 12:46:26;;;;;;;4.27;2.20;;;22.30;90.10;;;;;;4391677;28;658317;-64
2022/07/06 12:49:16;;;;;;;4.53;2.00;;;22.40;91.50;;;;;;4377995;28;657930;-64
2022/07/06 12:52:10;;;;;;;4.10;2.30;;;21.50;87.90;;;;;;4378022;28;658297;-65
2022/07/06 12:55:00;;;;;;;4.73;2.13;;;21.20;89.70;;;;;;4355279;28;658651;-63
2022/07/06 12:57:48;;;;;;;3.97;2.23;;;21.50;90.60;;;;;;4378081;28;657958;-64
2022/07/06 13:00:44;;;;;;;7.80;2.20;;;21.30;93.80;;;;;;4385737;28;657855;-65
2022/07/06 13:03:39;;;;;;;5.70;2.00;;;21.80;89.40;;;;;;4381735;28;657647;-64
2022/07/06 13:06:33;;;;;;;2.83;2.20;;;22.80;90.40;;;;;;4355012;28;658041;-64
2022/07/06 13:09:22;;;;;;;1.87;1.50;;;23.40;86.40;;;;;;4364498;28;657850;-66
2022/07/06 13:12:09;;;;;;;5.40;2.00;;;23.50;80.00;;;;;;4400566;28;657472;-64
2022/07/06 13:14:56;;;;;;;3.00;1.60;;;22.80;84.70;;;;;;4380683;28;657544;-64
2022/07/06 13:17:43;;;;;;;2.70;1.70;;;23.40;77.80;;;;;;4401527;28;658366;-64
2022/07/06 13:20:31;;;;;;;6.50;1.80;;;22.70;78.20;;;;;;4381114;28;658098;-65
2022/07/06 13:23:18;;;;;;;4.10;2.00;;;21.70;84.30;;;;;;4399924;28;658670;-64
2022/07/06 13:26:07;;;;;;;5.03;2.20;;;20.90;91.40;;;;;;4380293;28;657591;-65
2022/07/06 13:28:54;;;;;;;8.13;2.00;;;20.80;97.00;;;;;;4400074;28;657519;-65
2022/07/06 13:31:41;;;;;;;9.90;3.20;;;20.70;99.90;;;;;;4383055;28;658769;-65
2022/07/06 13:34:28;;;;;;;9.23;3.87;;;20.50;99.90;;;;;;4415857;28;658850;-64
2022/07/06 13:37:15;;;;;;;11.23;4.23;;;19.40;99.90;;;;;;4396719;28;657356;-65
2022/07/06 13:40:03;;;;;;;10.83;3.80;;;19.00;99.90;;;;;;4413996;28;658526;-65
2022/07/06 13:42:54;;;;;;;6.63;3.80;;;18.40;99.90;;;;;;4400083;28;658754;-65
2022/07/06 13:45:41;;;;;;;6.60;3.50;;;18.30;99.90;;;;;;4403235;28;657496;-64
2022/07/06 13:48:28;;;;;;;6.87;2.30;;;18.60;99.90;;;;;;4432788;28;658193;-65
2022/07/06 13:51:15;;;;;;;3.97;2.70;;;18.80;99.90;;;;;;4413943;28;657827;-66
2022/07/06 13:54:02;;;;;;;8.23;3.83;;;19.00;99.90;;;;;;4435512;28;657852;-65
2022/07/06 13:56:49;;;;;;;6.80;3.57;;;19.00;99.90;;;;;;4432641;28;657989;-64
2022/07/06 13:59:38;;;;;;;4.57;3.43;;;19.40;99.90;;;;;;4413709;28;657398;-64
2022/07/06 14:02:25;;;;;;;4.27;3.67;;;19.50;99.90;;;;;;4415114;28;657526;-66
2022/07/06 14:05:12;;;;;;;7.50;3.40;;;19.90;99.90;;;;;;4436518;28;656995;-64
2022/07/06 14:07:59;;;;;;;5.00;3.40;;;19.90;99.90;;;;;;4432423;28;658034;-64
2022/07/06 14:10:46;;;;;;;7.47;3.40;;;19.90;99.90;;;;;;4411087;28;657354;-65
2022/07/06 14:13:33;;;;;;;3.40;3.10;;;19.80;99.90;;;;;;4431824;28;658594;-64
2022/07/06 14:16:22;;;;;;;7.73;3.70;;;20.00;99.90;;;;;;4412924;28;658205;-64
2022/07/06 14:19:09;;;;;;;4.03;3.63;;;20.10;99.90;;;;;;4432239;28;657303;-64
2022/07/06 14:21:57;;;;;;;5.57;3.83;;;19.90;99.90;;;;;;4413225;28;657632;-65